sensor_id;sensor_type;location;lat;lon;timestamp;pressure;altitude;pressure_sealevel;temperature;humidity
74790;BME280;63318;52.406;13.416;2024-02-21T00:00:35;101750.02;;;7.40;83.10
74790;BME280;63318;52.406;13.416;2024-02-21T00:03:04;101743.98;;;7.40;83.08
74790;BME280;63318;52.406;13.416;2024-02-21T00:05:33;101740.42;;;7.39;83.29
74790;BME280;63318;52.406;13.416;2024-02-21T00:08:01;101735.83;;;7.39;83.34
74790;BME280;63318;52.406;13.416;2024-02-21T00:10:30;101738.65;;;7.39;83.41
74790;BME280;63318;52.406;13.416;2024-02-21T00:12:59;101734.75;;;7.38;83.20
74790;BME280;63318;52.406;13.416;2024-02-21T00:15:27;101734.11;;;7.37;83.31
74790;BME280;63318;52.406;13.416;2024-02-21T00:17:55;101729.18;;;7.37;83.35
74790;BME280;63318;52.406;13.416;2024-02-21T00:20:24;101725.46;;;7.36;83.12
74790;BME280;63318;52.406;13.416;2024-02-21T00:22:52;101721.67;;;7.35;83.18
74790;BME280;63318;52.406;13.416;2024-02-21T00:25:21;101717.68;;;7.35;83.13
74790;BME280;63318;52.406;13.416;2024-02-21T00:27:49;101717.55;;;7.35;83.27
74790;BME280;63318;52.406;13.416;2024-02-21T00:30:17;101716.98;;;7.34;83.19
74790;BME280;63318;52.406;13.416;2024-02-21T00:32:47;101717.92;;;7.34;83.08
74790;BME280;63318;52.406;13.416;2024-02-21T00:35:17;101713.38;;;7.33;83.21
74790;BME280;63318;52.406;13.416;2024-02-21T00:37:46;101712.14;;;7.33;83.37
74790;BME280;63318;52.406;13.416;2024-02-21T00:40:14;101710.85;;;7.32;83.28
74790;BME280;63318;52.406;13.416;2024-02-21T00:42:42;101712.73;;;7.32;83.29
74790;BME280;63318;52.406;13.416;2024-02-21T00:45:11;101709.23;;;7.32;83.42
74790;BME280;63318;52.406;13.416;2024-02-21T00:47:39;101705.67;;;7.33;83.35
74790;BME280;63318;52.406;13.416;2024-02-21T00:50:09;101703.38;;;7.33;83.28
74790;BME280;63318;52.406;13.416;2024-02-21T00:52:38;101702.17;;;7.34;83.10
74790;BME280;63318;52.406;13.416;2024-02-21T00:55:08;101698.00;;;7.35;83.20
74790;BME280;63318;52.406;13.416;2024-02-21T00:57:38;101694.12;;;7.35;83.25
74790;BME280;63318;52.406;13.416;2024-02-21T01:00:08;101694.55;;;7.36;83.20
74790;BME280;63318;52.406;13.416;2024-02-21T01:02:36;101697.48;;;7.36;83.17
74790;BME280;63318;52.406;13.416;2024-02-21T01:05:05;101697.05;;;7.36;83.14
74790;BME280;63318;52.406;13.416;2024-02-21T01:07:34;101692.92;;;7.37;83.09
74790;BME280;63318;52.406;13.416;2024-02-21T01:10:03;101684.80;;;7.37;83.08
74790;BME280;63318;52.406;13.416;2024-02-21T01:12:31;101684.61;;;7.37;83.22
74790;BME280;63318;52.406;13.416;2024-02-21T01:14:59;101679.55;;;7.37;83.21
74790;BME280;63318;52.406;13.416;2024-02-21T01:17:27;101675.25;;;7.38;82.96
74790;BME280;63318;52.406;13.416;2024-02-21T01:19:56;101676.20;;;7.38;83.13
74790;BME280;63318;52.406;13.416;2024-02-21T01:22:24;101679.24;;;7.38;83.10
74790;BME280;63318;52.406;13.416;2024-02-21T01:24:52;101672.56;;;7.38;82.87
74790;BME280;63318;52.406;13.416;2024-02-21T01:27:20;101672.52;;;7.39;82.93
74790;BME280;63318;52.406;13.416;2024-02-21T01:29:48;101670.31;;;7.39;83.06
74790;BME280;63318;52.406;13.416;2024-02-21T01:32:17;101669.41;;;7.39;83.07
74790;BME280;63318;52.406;13.416;2024-02-21T01:34:45;101670.31;;;7.39;82.97
74790;BME280;63318;52.406;13.416;2024-02-21T01:37:13;101665.41;;;7.39;82.89
74790;BME280;63318;52.406;13.416;2024-02-21T01:39:41;101661.75;;;7.39;82.79
74790;BME280;63318;52.406;13.416;2024-02-21T01:42:09;101660.64;;;7.41;82.96
74790;BME280;63318;52.406;13.416;2024-02-21T01:44:38;101657.79;;;7.41;82.89
74790;BME280;63318;52.406;13.416;2024-02-21T01:47:07;101657.64;;;7.42;82.76
74790;BME280;63318;52.406;13.416;2024-02-21T01:49:36;101655.56;;;7.42;82.72
74790;BME280;63318;52.406;13.416;2024-02-21T01:52:05;101659.30;;;7.43;82.89
74790;BME280;63318;52.406;13.416;2024-02-21T01:54:33;101655.54;;;7.44;82.89
74790;BME280;63318;52.406;13.416;2024-02-21T01:57:02;101649.29;;;7.45;82.65
74790;BME280;63318;52.406;13.416;2024-02-21T01:59:31;101647.72;;;7.47;82.62
74790;BME280;63318;52.406;13.416;2024-02-21T02:01:59;101647.41;;;7.47;82.70
74790;BME280;63318;52.406;13.416;2024-02-21T02:04:28;101641.02;;;7.48;82.63
74790;BME280;63318;52.406;13.416;2024-02-21T02:06:57;101635.99;;;7.48;82.70
74790;BME280;63318;52.406;13.416;2024-02-21T02:09:28;101638.92;;;7.49;82.60
74790;BME280;63318;52.406;13.416;2024-02-21T02:11:56;101631.31;;;7.49;82.64
74790;BME280;63318;52.406;13.416;2024-02-21T02:14:24;101631.31;;;7.49;82.74
74790;BME280;63318;52.406;13.416;2024-02-21T02:16:53;101629.48;;;7.49;82.95
74790;BME280;63318;52.406;13.416;2024-02-21T02:19:21;101624.99;;;7.48;82.97
74790;BME280;63318;52.406;13.416;2024-02-21T02:21:53;101623.30;;;7.47;83.18
74790;BME280;63318;52.406;13.416;2024-02-21T02:24:22;101622.39;;;7.46;83.03
74790;BME280;63318;52.406;13.416;2024-02-21T02:26:51;101619.55;;;7.44;83.20
74790;BME280;63318;52.406;13.416;2024-02-21T02:29:20;101616.62;;;7.41;83.68
74790;BME280;63318;52.406;13.416;2024-02-21T02:31:48;101615.15;;;7.39;83.91
74790;BME280;63318;52.406;13.416;2024-02-21T02:34:16;101611.36;;;7.37;83.81
74790;BME280;63318;52.406;13.416;2024-02-21T02:36:45;101613.64;;;7.35;83.81
74790;BME280;63318;52.406;13.416;2024-02-21T02:39:13;101610.31;;;7.32;83.89
74790;BME280;63318;52.406;13.416;2024-02-21T02:41:41;101607.15;;;7.30;84.26
74790;BME280;63318;52.406;13.416;2024-02-21T02:44:10;101605.81;;;7.28;84.24
74790;BME280;63318;52.406;13.416;2024-02-21T02:46:38;101605.04;;;7.26;84.56
74790;BME280;63318;52.406;13.416;2024-02-21T02:49:08;101606.21;;;7.24;84.77
74790;BME280;63318;52.406;13.416;2024-02-21T02:51:36;101605.21;;;7.22;85.06
74790;BME280;63318;52.406;13.416;2024-02-21T02:54:05;101603.44;;;7.21;84.93
74790;BME280;63318;52.406;13.416;2024-02-21T02:56:33;101602.79;;;7.19;85.10
74790;BME280;63318;52.406;13.416;2024-02-21T02:59:01;101595.88;;;7.17;85.41
74790;BME280;63318;52.406;13.416;2024-02-21T03:01:29;101601.58;;;7.16;85.20
74790;BME280;63318;52.406;13.416;2024-02-21T03:04:01;101594.98;;;7.15;85.33
74790;BME280;63318;52.406;13.416;2024-02-21T03:06:29;101593.23;;;7.13;85.14
74790;BME280;63318;52.406;13.416;2024-02-21T03:08:58;101588.77;;;7.12;85.45
74790;BME280;63318;52.406;13.416;2024-02-21T03:11:27;101584.17;;;7.11;85.48
74790;BME280;63318;52.406;13.416;2024-02-21T03:13:56;101579.23;;;7.09;85.42
74790;BME280;63318;52.406;13.416;2024-02-21T03:16:24;101572.90;;;7.09;85.66
74790;BME280;63318;52.406;13.416;2024-02-21T03:21:35;101567.27;;;7.07;85.71
74790;BME280;63318;52.406;13.416;2024-02-21T03:24:04;101568.42;;;7.07;85.92
74790;BME280;63318;52.406;13.416;2024-02-21T03:26:33;101567.41;;;7.06;85.81
74790;BME280;63318;52.406;13.416;2024-02-21T03:29:01;101562.87;;;7.05;86.09
74790;BME280;63318;52.406;13.416;2024-02-21T03:31:30;101561.56;;;7.04;85.77
74790;BME280;63318;52.406;13.416;2024-02-21T03:33:59;101562.55;;;7.03;86.31
74790;BME280;63318;52.406;13.416;2024-02-21T03:36:27;101563.20;;;7.02;86.62
74790;BME280;63318;52.406;13.416;2024-02-21T03:38:57;101563.60;;;7.00;86.29
74790;BME280;63318;52.406;13.416;2024-02-21T03:41:26;101563.95;;;6.99;86.21
74790;BME280;63318;52.406;13.416;2024-02-21T03:43:54;101559.38;;;6.98;86.11
74790;BME280;63318;52.406;13.416;2024-02-21T03:46:23;101562.92;;;6.96;86.69
74790;BME280;63318;52.406;13.416;2024-02-21T03:48:53;101558.64;;;6.95;86.65
74790;BME280;63318;52.406;13.416;2024-02-21T03:51:24;101559.51;;;6.94;87.19
74790;BME280;63318;52.406;13.416;2024-02-21T03:53:52;101554.26;;;6.93;86.85
74790;BME280;63318;52.406;13.416;2024-02-21T03:56:21;101548.16;;;6.92;87.11
74790;BME280;63318;52.406;13.416;2024-02-21T03:58:49;101543.29;;;6.90;87.01
74790;BME280;63318;52.406;13.416;2024-02-21T04:01:21;101535.97;;;6.88;87.18
74790;BME280;63318;52.406;13.416;2024-02-21T04:03:49;101534.98;;;6.88;87.26
74790;BME280;63318;52.406;13.416;2024-02-21T04:06:18;101530.77;;;6.86;87.15
74790;BME280;63318;52.406;13.416;2024-02-21T04:08:46;101530.82;;;6.85;87.21
74790;BME280;63318;52.406;13.416;2024-02-21T04:11:14;101529.81;;;6.84;87.67
74790;BME280;63318;52.406;13.416;2024-02-21T04:13:42;101529.91;;;6.84;87.45
74790;BME280;63318;52.406;13.416;2024-02-21T04:16:11;101520.70;;;6.82;87.39
74790;BME280;63318;52.406;13.416;2024-02-21T04:18:41;101520.79;;;6.82;87.65
74790;BME280;63318;52.406;13.416;2024-02-21T04:21:10;101519.10;;;6.81;88.03
74790;BME280;63318;52.406;13.416;2024-02-21T04:23:38;101512.66;;;6.80;88.46
74790;BME280;63318;52.406;13.416;2024-02-21T04:26:06;101499.32;;;6.79;88.21
74790;BME280;63318;52.406;13.416;2024-02-21T04:28:35;101494.17;;;6.79;88.02
74790;BME280;63318;52.406;13.416;2024-02-21T04:31:03;101492.70;;;6.79;88.01
74790;BME280;63318;52.406;13.416;2024-02-21T04:33:32;101487.73;;;6.79;88.04
74790;BME280;63318;52.406;13.416;2024-02-21T04:36:00;101479.38;;;6.78;88.23
74790;BME280;63318;52.406;13.416;2024-02-21T04:38:29;101472.67;;;6.77;88.09
74790;BME280;63318;52.406;13.416;2024-02-21T04:40:58;101471.14;;;6.78;88.23
74790;BME280;63318;52.406;13.416;2024-02-21T04:43:27;101465.20;;;6.77;88.19
74790;BME280;63318;52.406;13.416;2024-02-21T04:45:55;101454.09;;;6.77;88.32
74790;BME280;63318;52.406;13.416;2024-02-21T04:48:23;101443.66;;;6.77;88.18
74790;BME280;63318;52.406;13.416;2024-02-21T04:50:51;101437.80;;;6.77;88.29
74790;BME280;63318;52.406;13.416;2024-02-21T04:53:20;101435.64;;;6.76;88.30
74790;BME280;63318;52.406;13.416;2024-02-21T04:55:49;101440.64;;;6.76;88.05
74790;BME280;63318;52.406;13.416;2024-02-21T04:58:17;101440.97;;;6.76;88.41
74790;BME280;63318;52.406;13.416;2024-02-21T05:00:45;101435.83;;;6.75;88.13
74790;BME280;63318;52.406;13.416;2024-02-21T05:03:13;101431.15;;;6.74;88.44
74790;BME280;63318;52.406;13.416;2024-02-21T05:05:42;101430.98;;;6.74;88.52
74790;BME280;63318;52.406;13.416;2024-02-21T05:08:10;101429.41;;;6.74;88.30
74790;BME280;63318;52.406;13.416;2024-02-21T05:10:39;101422.30;;;6.74;88.71
74790;BME280;63318;52.406;13.416;2024-02-21T05:13:07;101423.41;;;6.73;88.46
74790;BME280;63318;52.406;13.416;2024-02-21T05:15:35;101427.86;;;6.73;88.47
74790;BME280;63318;52.406;13.416;2024-02-21T05:18:04;101424.60;;;6.73;88.43
74790;BME280;63318;52.406;13.416;2024-02-21T05:20:32;101429.58;;;6.73;88.47
74790;BME280;63318;52.406;13.416;2024-02-21T05:23:01;101430.98;;;6.72;88.54
74790;BME280;63318;52.406;13.416;2024-02-21T05:25:29;101429.10;;;6.72;88.77
74790;BME280;63318;52.406;13.416;2024-02-21T05:27:58;101427.19;;;6.73;88.39
74790;BME280;63318;52.406;13.416;2024-02-21T05:30:26;101425.96;;;6.72;88.55
74790;BME280;63318;52.406;13.416;2024-02-21T05:32:54;101423.84;;;6.72;88.73
74790;BME280;63318;52.406;13.416;2024-02-21T05:35:28;101422.35;;;6.72;88.45
74790;BME280;63318;52.406;13.416;2024-02-21T05:37:56;101423.09;;;6.72;88.62
74790;BME280;63318;52.406;13.416;2024-02-21T05:40:25;101424.35;;;6.72;88.86
74790;BME280;63318;52.406;13.416;2024-02-21T05:42:53;101421.33;;;6.73;88.81
74790;BME280;63318;52.406;13.416;2024-02-21T05:45:22;101423.28;;;6.73;88.91
74790;BME280;63318;52.406;13.416;2024-02-21T05:47:50;101429.91;;;6.73;88.83
74790;BME280;63318;52.406;13.416;2024-02-21T05:50:18;101432.62;;;6.73;88.91
74790;BME280;63318;52.406;13.416;2024-02-21T05:52:47;101425.50;;;6.73;89.17
74790;BME280;63318;52.406;13.416;2024-02-21T05:55:15;101428.27;;;6.74;88.98
74790;BME280;63318;52.406;13.416;2024-02-21T05:57:43;101425.84;;;6.74;89.29
74790;BME280;63318;52.406;13.416;2024-02-21T06:00:15;101422.62;;;6.75;89.12
74790;BME280;63318;52.406;13.416;2024-02-21T06:02:43;101420.54;;;6.75;89.00
74790;BME280;63318;52.406;13.416;2024-02-21T06:05:12;101418.27;;;6.76;89.04
74790;BME280;63318;52.406;13.416;2024-02-21T06:07:40;101417.75;;;6.77;88.94
74790;BME280;63318;52.406;13.416;2024-02-21T06:10:09;101417.02;;;6.77;89.01
74790;BME280;63318;52.406;13.416;2024-02-21T06:12:38;101416.00;;;6.77;89.00
74790;BME280;63318;52.406;13.416;2024-02-21T06:15:07;101420.29;;;6.78;89.10
74790;BME280;63318;52.406;13.416;2024-02-21T06:17:36;101414.52;;;6.78;89.37
74790;BME280;63318;52.406;13.416;2024-02-21T06:20:07;101415.05;;;6.79;89.47
74790;BME280;63318;52.406;13.416;2024-02-21T06:22:36;101413.84;;;6.79;89.41
74790;BME280;63318;52.406;13.416;2024-02-21T06:25:05;101413.46;;;6.79;89.63
74790;BME280;63318;52.406;13.416;2024-02-21T06:27:33;101411.44;;;6.80;89.39
74790;BME280;63318;52.406;13.416;2024-02-21T06:30:02;101409.47;;;6.80;89.69
74790;BME280;63318;52.406;13.416;2024-02-21T06:32:30;101401.45;;;6.81;89.50
74790;BME280;63318;52.406;13.416;2024-02-21T06:34:58;101401.54;;;6.82;89.58
74790;BME280;63318;52.406;13.416;2024-02-21T06:37:27;101404.05;;;6.82;89.44
74790;BME280;63318;52.406;13.416;2024-02-21T06:39:55;101402.69;;;6.82;89.48
74790;BME280;63318;52.406;13.416;2024-02-21T06:42:25;101403.42;;;6.83;89.37
74790;BME280;63318;52.406;13.416;2024-02-21T06:44:54;101404.05;;;6.84;89.69
74790;BME280;63318;52.406;13.416;2024-02-21T06:47:22;101404.70;;;6.86;89.77
74790;BME280;63318;52.406;13.416;2024-02-21T06:49:54;101403.98;;;6.87;89.74
74790;BME280;63318;52.406;13.416;2024-02-21T06:52:22;101401.41;;;6.88;89.65
74790;BME280;63318;52.406;13.416;2024-02-21T06:54:51;101397.35;;;6.89;89.60
74790;BME280;63318;52.406;13.416;2024-02-21T06:57:19;101399.16;;;6.91;89.63
74790;BME280;63318;52.406;13.416;2024-02-21T06:59:47;101402.34;;;6.92;89.51
74790;BME280;63318;52.406;13.416;2024-02-21T07:02:16;101400.73;;;6.92;89.32
74790;BME280;63318;52.406;13.416;2024-02-21T07:04:44;101402.00;;;6.94;89.38
74790;BME280;63318;52.406;13.416;2024-02-21T07:07:13;101405.02;;;6.95;89.49
74790;BME280;63318;52.406;13.416;2024-02-21T07:09:41;101406.98;;;6.96;89.72
74790;BME280;63318;52.406;13.416;2024-02-21T07:12:10;101403.35;;;6.97;89.63
74790;BME280;63318;52.406;13.416;2024-02-21T07:14:38;101404.58;;;6.99;89.74
74790;BME280;63318;52.406;13.416;2024-02-21T07:17:06;101402.94;;;7.00;89.70
74790;BME280;63318;52.406;13.416;2024-02-21T07:19:35;101406.67;;;7.01;89.52
74790;BME280;63318;52.406;13.416;2024-02-21T07:22:03;101412.08;;;7.03;89.37
74790;BME280;63318;52.406;13.416;2024-02-21T07:24:32;101411.19;;;7.03;89.67
74790;BME280;63318;52.406;13.416;2024-02-21T07:27:00;101405.36;;;7.04;89.67
74790;BME280;63318;52.406;13.416;2024-02-21T07:29:29;101406.02;;;7.04;89.39
74790;BME280;63318;52.406;13.416;2024-02-21T07:31:57;101404.65;;;7.04;89.56
74790;BME280;63318;52.406;13.416;2024-02-21T07:34:26;101409.91;;;7.05;89.38
74790;BME280;63318;52.406;13.416;2024-02-21T07:36:54;101409.88;;;7.05;89.48
74790;BME280;63318;52.406;13.416;2024-02-21T07:39:22;101406.64;;;7.06;89.54
74790;BME280;63318;52.406;13.416;2024-02-21T07:41:51;101407.42;;;7.07;89.30
74790;BME280;63318;52.406;13.416;2024-02-21T07:44:19;101403.94;;;7.08;89.47
74790;BME280;63318;52.406;13.416;2024-02-21T07:46:47;101396.33;;;7.09;89.40
74790;BME280;63318;52.406;13.416;2024-02-21T07:49:16;101395.45;;;7.12;89.42
74790;BME280;63318;52.406;13.416;2024-02-21T07:51:44;101397.44;;;7.13;89.39
74790;BME280;63318;52.406;13.416;2024-02-21T07:54:12;101394.23;;;7.15;89.28
74790;BME280;63318;52.406;13.416;2024-02-21T07:56:41;101394.23;;;7.16;89.15
74790;BME280;63318;52.406;13.416;2024-02-21T07:59:09;101395.20;;;7.17;89.14
74790;BME280;63318;52.406;13.416;2024-02-21T08:01:37;101388.62;;;7.18;89.23
74790;BME280;63318;52.406;13.416;2024-02-21T08:04:06;101391.69;;;7.19;89.21
74790;BME280;63318;52.406;13.416;2024-02-21T08:06:34;101392.39;;;7.21;88.86
74790;BME280;63318;52.406;13.416;2024-02-21T08:09:02;101391.77;;;7.22;89.04
74790;BME280;63318;52.406;13.416;2024-02-21T08:11:31;101388.56;;;7.24;88.80
74790;BME280;63318;52.406;13.416;2024-02-21T08:13:59;101389.59;;;7.25;88.90
74790;BME280;63318;52.406;13.416;2024-02-21T08:16:27;101382.55;;;7.27;89.09
74790;BME280;63318;52.406;13.416;2024-02-21T08:18:57;101380.40;;;7.29;88.82
74790;BME280;63318;52.406;13.416;2024-02-21T08:21:26;101376.80;;;7.31;88.82
74790;BME280;63318;52.406;13.416;2024-02-21T08:23:54;101377.17;;;7.33;88.82
74790;BME280;63318;52.406;13.416;2024-02-21T08:26:23;101380.41;;;7.36;88.77
74790;BME280;63318;52.406;13.416;2024-02-21T08:28:51;101380.25;;;7.38;88.58
74790;BME280;63318;52.406;13.416;2024-02-21T08:31:21;101376.84;;;7.41;88.47
74790;BME280;63318;52.406;13.416;2024-02-21T08:33:50;101375.95;;;7.43;88.54
74790;BME280;63318;52.406;13.416;2024-02-21T08:36:21;101373.08;;;7.45;88.17
74790;BME280;63318;52.406;13.416;2024-02-21T08:38:49;101376.58;;;7.48;88.46
74790;BME280;63318;52.406;13.416;2024-02-21T08:41:18;101378.73;;;7.52;88.50
74790;BME280;63318;52.406;13.416;2024-02-21T08:43:46;101376.23;;;7.56;88.58
74790;BME280;63318;52.406;13.416;2024-02-21T08:46:17;101370.25;;;7.60;88.56
74790;BME280;63318;52.406;13.416;2024-02-21T08:48:47;101371.49;;;7.64;88.50
74790;BME280;63318;52.406;13.416;2024-02-21T08:51:15;101372.03;;;7.67;88.16
74790;BME280;63318;52.406;13.416;2024-02-21T08:53:45;101371.71;;;7.71;88.26
74790;BME280;63318;52.406;13.416;2024-02-21T08:56:13;101373.77;;;7.76;88.40
74790;BME280;63318;52.406;13.416;2024-02-21T08:58:42;101380.56;;;7.80;88.04
74790;BME280;63318;52.406;13.416;2024-02-21T09:01:10;101377.31;;;7.86;88.33
74790;BME280;63318;52.406;13.416;2024-02-21T09:03:39;101377.39;;;7.91;88.05
74790;BME280;63318;52.406;13.416;2024-02-21T09:06:12;101382.63;;;7.97;87.98
74790;BME280;63318;52.406;13.416;2024-02-21T09:08:41;101385.13;;;8.02;87.83
74790;BME280;63318;52.406;13.416;2024-02-21T09:11:10;101388.35;;;8.08;87.81
74790;BME280;63318;52.406;13.416;2024-02-21T09:13:38;101381.42;;;8.11;87.85
74790;BME280;63318;52.406;13.416;2024-02-21T09:16:07;101376.95;;;8.16;87.70
74790;BME280;63318;52.406;13.416;2024-02-21T09:18:35;101376.33;;;8.24;87.59
74790;BME280;63318;52.406;13.416;2024-02-21T09:21:04;101377.27;;;8.30;87.45
74790;BME280;63318;52.406;13.416;2024-02-21T09:23:32;101375.59;;;8.34;87.19
74790;BME280;63318;52.406;13.416;2024-02-21T09:26:01;101366.60;;;8.38;86.71
74790;BME280;63318;52.406;13.416;2024-02-21T09:28:29;101368.30;;;8.43;86.97
74790;BME280;63318;52.406;13.416;2024-02-21T09:30:57;101363.91;;;8.47;86.81
74790;BME280;63318;52.406;13.416;2024-02-21T09:33:26;101363.29;;;8.52;86.91
74790;BME280;63318;52.406;13.416;2024-02-21T09:35:54;101362.45;;;8.56;86.77
74790;BME280;63318;52.406;13.416;2024-02-21T09:38:22;101360.40;;;8.60;86.61
74790;BME280;63318;52.406;13.416;2024-02-21T09:40:55;101352.34;;;8.64;86.57
74790;BME280;63318;52.406;13.416;2024-02-21T09:43:27;101356.92;;;8.69;86.32
74790;BME280;63318;52.406;13.416;2024-02-21T09:45:56;101353.95;;;8.73;86.55
74790;BME280;63318;52.406;13.416;2024-02-21T09:48:38;101348.27;;;8.77;86.20
74790;BME280;63318;52.406;13.416;2024-02-21T09:51:08;101347.77;;;8.82;86.03
74790;BME280;63318;52.406;13.416;2024-02-21T09:53:44;101342.02;;;8.85;86.12
74790;BME280;63318;52.406;13.416;2024-02-21T09:56:14;101335.84;;;8.90;86.02
74790;BME280;63318;52.406;13.416;2024-02-21T09:58:45;101340.11;;;8.96;85.52
74790;BME280;63318;52.406;13.416;2024-02-21T10:01:15;101345.48;;;8.99;85.39
74790;BME280;63318;52.406;13.416;2024-02-21T10:03:43;101351.88;;;9.02;85.28
74790;BME280;63318;52.406;13.416;2024-02-21T10:06:12;101352.73;;;9.07;85.43
74790;BME280;63318;52.406;13.416;2024-02-21T10:08:42;101349.22;;;9.12;85.42
74790;BME280;63318;52.406;13.416;2024-02-21T10:11:10;101350.58;;;9.18;85.46
74790;BME280;63318;52.406;13.416;2024-02-21T10:13:39;101347.23;;;9.22;85.44
74790;BME280;63318;52.406;13.416;2024-02-21T10:16:08;101345.70;;;9.27;85.34
74790;BME280;63318;52.406;13.416;2024-02-21T10:18:37;101350.11;;;9.31;85.27
74790;BME280;63318;52.406;13.416;2024-02-21T10:21:07;101346.45;;;9.34;85.19
74790;BME280;63318;52.406;13.416;2024-02-21T10:23:45;101348.94;;;9.37;84.98
74790;BME280;63318;52.406;13.416;2024-02-21T10:26:18;101348.67;;;9.39;85.00
74790;BME280;63318;52.406;13.416;2024-02-21T10:28:47;101348.34;;;9.41;84.80
74790;BME280;63318;52.406;13.416;2024-02-21T10:31:25;101345.57;;;9.44;84.77
74790;BME280;63318;52.406;13.416;2024-02-21T10:33:57;101347.83;;;9.47;84.71
74790;BME280;63318;52.406;13.416;2024-02-21T10:36:27;101348.25;;;9.49;84.51
74790;BME280;63318;52.406;13.416;2024-02-21T10:38:55;101350.51;;;9.51;84.29
74790;BME280;63318;52.406;13.416;2024-02-21T10:41:25;101347.81;;;9.53;84.22
74790;BME280;63318;52.406;13.416;2024-02-21T10:43:54;101345.29;;;9.55;84.19
74790;BME280;63318;52.406;13.416;2024-02-21T10:46:23;101341.11;;;9.56;84.23
74790;BME280;63318;52.406;13.416;2024-02-21T10:49:02;101338.54;;;9.59;84.01
74790;BME280;63318;52.406;13.416;2024-02-21T10:51:34;101337.52;;;9.61;84.19
74790;BME280;63318;52.406;13.416;2024-02-21T10:54:16;101333.34;;;9.63;84.23
74790;BME280;63318;52.406;13.416;2024-02-21T10:56:51;101330.09;;;9.65;84.14
74790;BME280;63318;52.406;13.416;2024-02-21T10:59:21;101333.19;;;9.65;83.77
74790;BME280;63318;52.406;13.416;2024-02-21T11:01:50;101332.54;;;9.65;84.04
74790;BME280;63318;52.406;13.416;2024-02-21T11:04:18;101328.56;;;9.66;83.99
74790;BME280;63318;52.406;13.416;2024-02-21T11:06:50;101328.70;;;9.68;84.00
74790;BME280;63318;52.406;13.416;2024-02-21T11:09:28;101327.69;;;9.71;83.75
74790;BME280;63318;52.406;13.416;2024-02-21T11:11:59;101319.80;;;9.74;83.79
74790;BME280;63318;52.406;13.416;2024-02-21T11:14:29;101316.88;;;9.79;83.78
74790;BME280;63318;52.406;13.416;2024-02-21T11:17:00;101306.83;;;9.83;84.00
74790;BME280;63318;52.406;13.416;2024-02-21T11:19:29;101304.29;;;9.87;83.89
74790;BME280;63318;52.406;13.416;2024-02-21T11:21:58;101297.10;;;9.90;83.80
74790;BME280;63318;52.406;13.416;2024-02-21T11:24:31;101290.34;;;9.94;83.68
74790;BME280;63318;52.406;13.416;2024-02-21T11:27:13;101281.38;;;10.00;83.88
74790;BME280;63318;52.406;13.416;2024-02-21T11:29:55;101273.02;;;10.12;83.84
74790;BME280;63318;52.406;13.416;2024-02-21T11:32:24;101270.36;;;10.26;83.43
74790;BME280;63318;52.406;13.416;2024-02-21T11:35:20;101262.46;;;10.34;83.41
74790;BME280;63318;52.406;13.416;2024-02-21T11:37:50;101256.60;;;10.45;83.16
74790;BME280;63318;52.406;13.416;2024-02-21T11:40:21;101252.77;;;10.52;82.89
74790;BME280;63318;52.406;13.416;2024-02-21T11:42:49;101250.71;;;10.56;82.86
74790;BME280;63318;52.406;13.416;2024-02-21T11:45:18;101242.88;;;10.62;82.67
74790;BME280;63318;52.406;13.416;2024-02-21T11:47:47;101236.98;;;10.71;82.50
74790;BME280;63318;52.406;13.416;2024-02-21T11:50:16;101234.38;;;10.84;82.02
74790;BME280;63318;52.406;13.416;2024-02-21T11:52:44;101224.60;;;10.97;82.07
74790;BME280;63318;52.406;13.416;2024-02-21T11:55:13;101224.07;;;11.07;81.66
74790;BME280;63318;52.406;13.416;2024-02-21T11:57:41;101213.44;;;11.13;81.30
74790;BME280;63318;52.406;13.416;2024-02-21T12:00:18;101210.36;;;11.18;81.06
74790;BME280;63318;52.406;13.416;2024-02-21T12:02:47;101204.99;;;11.24;80.99
74790;BME280;63318;52.406;13.416;2024-02-21T12:05:16;101200.64;;;11.27;81.10
74790;BME280;63318;52.406;13.416;2024-02-21T12:07:44;101196.34;;;11.34;80.84
74790;BME280;63318;52.406;13.416;2024-02-21T12:10:13;101195.45;;;11.42;80.74
74790;BME280;63318;52.406;13.416;2024-02-21T12:12:42;101185.82;;;11.52;80.39
74790;BME280;63318;52.406;13.416;2024-02-21T12:15:11;101178.42;;;11.62;80.08
74790;BME280;63318;52.406;13.416;2024-02-21T12:17:41;101174.39;;;11.72;80.08
74790;BME280;63318;52.406;13.416;2024-02-21T12:20:09;101171.39;;;11.76;79.13
74790;BME280;63318;52.406;13.416;2024-02-21T12:22:41;101170.27;;;11.75;79.09
74790;BME280;63318;52.406;13.416;2024-02-21T12:25:18;101170.84;;;11.75;78.83
74790;BME280;63318;52.406;13.416;2024-02-21T12:27:48;101162.49;;;11.74;79.08
74790;BME280;63318;52.406;13.416;2024-02-21T12:30:17;101152.89;;;11.71;79.12
74790;BME280;63318;52.406;13.416;2024-02-21T12:32:45;101152.84;;;11.70;78.57
74790;BME280;63318;52.406;13.416;2024-02-21T12:35:14;101156.96;;;11.70;78.50
74790;BME280;63318;52.406;13.416;2024-02-21T12:37:42;101152.89;;;11.70;78.99
74790;BME280;63318;52.406;13.416;2024-02-21T12:40:12;101154.52;;;11.66;76.92
74790;BME280;63318;52.406;13.416;2024-02-21T12:42:40;101152.73;;;11.58;77.50
74790;BME280;63318;52.406;13.416;2024-02-21T12:45:10;101150.54;;;11.51;77.68
74790;BME280;63318;52.406;13.416;2024-02-21T12:47:38;101143.84;;;11.46;77.86
74790;BME280;63318;52.406;13.416;2024-02-21T12:50:08;101135.77;;;11.45;77.96
74790;BME280;63318;52.406;13.416;2024-02-21T12:52:37;101136.81;;;11.44;78.21
74790;BME280;63318;52.406;13.416;2024-02-21T12:55:06;101141.77;;;11.44;78.19
74790;BME280;63318;52.406;13.416;2024-02-21T12:57:36;101137.77;;;11.44;78.05
74790;BME280;63318;52.406;13.416;2024-02-21T13:00:06;101134.79;;;11.43;77.44